Time;durP1;ratioP1;P1;durP2;ratioP2;P2;SDS_P1;SDS_P2;PMS_P1;PMS_P2;Temp;Humidity;BMP_temperature;BMP_pressure;BME280_temperature;BME280_humidity;BME280_pressure;Samples;Min_cycle;Max_cycle;Signal;HPM_P1;HPM_P2
2022/05/08 00:01:28;;;;;;;5.10;3.22;;;9.80;81.10;;;;;;1921738;74;21081;-56
2022/05/08 00:03:58;;;;;;;6.45;2.98;;;9.80;81.10;;;;;;1921684;75;21140;-56
2022/05/08 00:06:27;;;;;;;3.27;2.83;;;9.80;81.00;;;;;;1921773;75;21078;-56
2022/05/08 00:08:56;;;;;;;3.10;2.77;;;9.80;81.00;;;;;;1921950;75;21022;-56
2022/05/08 00:11:26;;;;;;;5.75;3.30;;;9.80;80.90;;;;;;1921871;75;21031;-56
2022/05/08 00:13:56;;;;;;;4.45;2.72;;;9.80;80.80;;;;;;1921857;75;21084;-56
2022/05/08 00:16:25;;;;;;;4.87;3.10;;;9.90;80.90;;;;;;1921810;75;21026;-56
2022/05/08 00:18:54;;;;;;;4.75;2.83;;;9.90;81.10;;;;;;1921893;75;21042;-56
2022/05/08 00:21:24;;;;;;;3.12;2.60;;;9.90;81.00;;;;;;1921797;75;21023;-56
2022/05/08 00:23:53;;;;;;;4.37;3.40;;;10.00;81.00;;;;;;1921966;75;21089;-56
2022/05/08 00:26:22;;;;;;;3.77;3.02;;;10.00;81.10;;;;;;1921915;75;21046;-56
2022/05/08 00:28:52;;;;;;;4.58;2.90;;;10.10;81.10;;;;;;1921827;75;21088;-56
2022/05/08 00:31:22;;;;;;;4.37;2.72;;;10.10;81.00;;;;;;1917628;75;21098;-56
2022/05/08 00:33:51;;;;;;;7.58;3.60;;;10.20;81.00;;;;;;1913656;74;21051;-56
2022/05/08 00:36:21;;;;;;;4.22;2.83;;;10.20;81.00;;;;;;1913575;75;21022;-56
2022/05/08 00:38:50;;;;;;;5.97;3.52;;;10.20;81.00;;;;;;1913523;75;21527;-56
2022/05/08 00:41:19;;;;;;;3.60;2.87;;;10.20;81.00;;;;;;1913548;75;21031;-57
2022/05/08 00:43:48;;;;;;;5.08;3.10;;;10.20;81.10;;;;;;1913517;75;21031;-57
2022/05/08 00:46:17;;;;;;;5.22;2.60;;;10.30;81.20;;;;;;1913498;75;21062;-57
2022/05/08 00:48:48;;;;;;;5.05;3.33;;;10.30;81.10;;;;;;1913145;75;21527;-56
2022/05/08 00:51:18;;;;;;;4.25;3.12;;;10.30;81.10;;;;;;1913475;75;21186;-57
2022/05/08 00:53:52;;;;;;;3.02;2.47;;;10.30;81.00;;;;;;1913534;75;21078;-56
2022/05/08 00:56:22;;;;;;;4.97;2.90;;;10.30;81.10;;;;;;1913773;75;21106;-56
2022/05/08 00:58:52;;;;;;;7.17;2.75;;;10.30;81.20;;;;;;1913620;75;21098;-56
2022/05/08 01:01:21;;;;;;;5.55;3.92;;;10.30;81.10;;;;;;1913430;75;21026;-56
2022/05/08 01:03:51;;;;;;;5.97;3.52;;;10.30;81.20;;;;;;1913603;75;21050;-56
2022/05/08 01:06:20;;;;;;;7.37;3.70;;;10.30;81.30;;;;;;1913444;74;21080;-56
2022/05/08 01:08:51;;;;;;;5.12;2.87;;;10.30;81.30;;;;;;1913708;75;21027;-56
2022/05/08 01:11:20;;;;;;;4.25;3.10;;;10.30;81.40;;;;;;1913663;75;21047;-56
2022/05/08 01:13:50;;;;;;;5.12;3.22;;;10.30;81.30;;;;;;1913569;75;21022;-56
2022/05/08 01:16:21;;;;;;;5.45;3.40;;;10.30;81.40;;;;;;1913455;75;21006;-56
2022/05/08 01:18:51;;;;;;;4.17;3.22;;;10.30;81.50;;;;;;1913628;75;21026;-56
2022/05/08 01:21:23;;;;;;;4.55;3.40;;;10.20;81.50;;;;;;1913552;75;21026;-56
2022/05/08 01:23:52;;;;;;;3.72;2.85;;;10.20;81.70;;;;;;1913508;75;21027;-56
2022/05/08 01:26:22;;;;;;;5.22;3.35;;;10.20;81.70;;;;;;1913510;75;21058;-56
2022/05/08 01:28:52;;;;;;;3.70;2.98;;;10.20;81.80;;;;;;1913512;75;21007;-56
2022/05/08 01:31:22;;;;;;;7.12;3.40;;;10.20;81.90;;;;;;1915570;74;21050;-56
2022/05/08 01:33:52;;;;;;;5.72;3.25;;;10.20;81.60;;;;;;1921786;75;21034;-56
2022/05/08 01:36:21;;;;;;;6.95;3.40;;;10.20;81.70;;;;;;1921863;75;21030;-57
2022/05/08 01:38:51;;;;;;;4.25;2.98;;;10.20;81.70;;;;;;1921845;75;21092;-56
2022/05/08 01:41:20;;;;;;;6.78;3.20;;;10.20;81.80;;;;;;1921808;75;21120;-57
2022/05/08 01:43:49;;;;;;;5.10;2.70;;;10.20;81.90;;;;;;1921897;75;21027;-56
2022/05/08 01:46:20;;;;;;;4.17;2.90;;;10.20;82.00;;;;;;1921752;75;21045;-57
2022/05/08 01:48:50;;;;;;;2.62;2.37;;;10.20;82.00;;;;;;1922087;75;21540;-57
2022/05/08 01:51:20;;;;;;;3.77;2.85;;;10.20;81.90;;;;;;1921752;75;21026;-56
2022/05/08 01:53:49;;;;;;;4.62;3.20;;;10.20;82.00;;;;;;1921876;75;21006;-56
2022/05/08 01:56:19;;;;;;;4.17;2.98;;;10.20;82.10;;;;;;1921725;75;21002;-56
2022/05/08 01:58:49;;;;;;;6.85;3.20;;;10.20;82.00;;;;;;1921753;75;21030;-56
2022/05/08 02:01:19;;;;;;;5.40;3.25;;;10.10;82.10;;;;;;1921923;75;21121;-56
2022/05/08 02:03:48;;;;;;;4.12;3.02;;;10.10;82.00;;;;;;1921859;75;21010;-56
2022/05/08 02:06:18;;;;;;;6.17;3.17;;;10.10;82.00;;;;;;1921869;75;21123;-57
2022/05/08 02:08:48;;;;;;;5.80;2.85;;;10.10;81.80;;;;;;1921808;75;21082;-56
2022/05/08 02:11:17;;;;;;;5.83;3.08;;;10.10;81.90;;;;;;1921844;75;21010;-56
2022/05/08 02:13:46;;;;;;;5.30;3.40;;;10.10;82.00;;;;;;1921784;75;21026;-57
2022/05/08 02:16:16;;;;;;;6.62;3.62;;;10.10;82.00;;;;;;1921765;75;21092;-57
2022/05/08 02:18:45;;;;;;;5.25;3.10;;;10.10;82.10;;;;;;1921788;75;21002;-57
2022/05/08 02:21:14;;;;;;;3.58;2.85;;;10.10;82.10;;;;;;1921690;75;21147;-57
2022/05/08 02:23:44;;;;;;;5.75;3.40;;;10.10;82.00;;;;;;1921764;75;21031;-57
2022/05/08 02:26:13;;;;;;;5.05;3.30;;;10.10;82.10;;;;;;1921716;75;21011;-57
2022/05/08 02:28:42;;;;;;;4.83;3.17;;;10.10;82.20;;;;;;1921731;75;21027;-57
2022/05/08 02:31:11;;;;;;;4.40;3.20;;;10.10;82.30;;;;;;1921745;75;21038;-57
2022/05/08 02:33:41;;;;;;;5.10;3.15;;;10.10;82.30;;;;;;1913938;74;21042;-57
2022/05/08 02:36:13;;;;;;;6.58;3.58;;;10.10;82.30;;;;;;1913169;75;21103;-57
2022/05/08 02:38:42;;;;;;;3.65;3.17;;;10.10;82.30;;;;;;1913456;75;21080;-56
2022/05/08 02:41:11;;;;;;;4.53;3.12;;;10.10;82.30;;;;;;1913547;75;21124;-56
2022/05/08 02:43:40;;;;;;;5.92;3.40;;;10.20;82.40;;;;;;1913488;75;21027;-56
2022/05/08 02:46:10;;;;;;;5.22;3.10;;;10.20;82.50;;;;;;1913545;75;21092;-56
2022/05/08 02:48:39;;;;;;;6.15;3.35;;;10.20;82.50;;;;;;1913559;75;21039;-56
2022/05/08 02:51:09;;;;;;;3.90;3.02;;;10.20;82.40;;;;;;1913515;75;21062;-57
2022/05/08 02:53:38;;;;;;;4.65;3.65;;;10.20;82.50;;;;;;1913588;75;21062;-57
2022/05/08 02:58:54;;;;;;;9.33;3.58;;;10.20;82.50;;;;;;1913534;75;21043;-57
2022/05/08 03:01:24;;;;;;;6.50;4.35;;;10.20;82.50;;;;;;1913408;75;21031;-57
2022/05/08 03:03:53;;;;;;;7.55;4.03;;;10.20;82.60;;;;;;1913420;75;21096;-57
2022/05/08 03:06:22;;;;;;;6.22;3.45;;;10.20;82.50;;;;;;1913466;75;21015;-56
2022/05/08 03:08:52;;;;;;;4.62;3.37;;;10.20;82.50;;;;;;1913523;75;21097;-57
2022/05/08 03:11:27;;;;;;;6.25;3.83;;;10.20;82.50;;;;;;1913563;75;21089;-56
2022/05/08 03:13:57;;;;;;;4.17;3.60;;;10.20;83.10;;;;;;1913406;75;21039;-57
2022/05/08 03:16:30;;;;;;;7.10;3.90;;;10.20;82.40;;;;;;1913549;75;21097;-56
2022/05/08 03:19:00;;;;;;;6.80;3.37;;;10.20;82.40;;;;;;1913433;74;21046;-57
2022/05/08 03:21:29;;;;;;;6.30;3.50;;;10.20;82.40;;;;;;1913524;75;21030;-56
2022/05/08 03:23:58;;;;;;;7.17;3.45;;;10.20;82.40;;;;;;1913425;74;21073;-56
2022/05/08 03:26:30;;;;;;;5.33;3.35;;;10.10;82.40;;;;;;1913414;75;21007;-56
2022/05/08 03:28:59;;;;;;;5.10;3.20;;;10.10;82.60;;;;;;1913603;75;21066;-57
2022/05/08 03:31:28;;;;;;;5.45;3.40;;;10.10;82.70;;;;;;1913524;75;21062;-57
2022/05/08 03:33:58;;;;;;;5.22;3.35;;;10.10;82.60;;;;;;1920185;75;21105;-57
2022/05/08 03:36:27;;;;;;;3.80;3.00;;;10.10;82.50;;;;;;1921816;75;21019;-56
2022/05/08 03:38:57;;;;;;;6.37;3.00;;;10.10;82.00;;;;;;1921720;75;21018;-56
2022/05/08 03:41:26;;;;;;;3.90;2.90;;;10.10;82.20;;;;;;1921894;75;21058;-57
2022/05/08 03:43:55;;;;;;;3.55;2.70;;;10.10;82.30;;;;;;1921927;75;21084;-56
2022/05/08 03:46:25;;;;;;;5.60;3.67;;;10.00;82.10;;;;;;1921864;75;21124;-57
2022/05/08 03:48:55;;;;;;;5.33;3.77;;;10.10;82.00;;;;;;1921896;75;21026;-56
2022/05/08 03:51:25;;;;;;;5.97;3.47;;;10.10;82.00;;;;;;1921925;75;21088;-57
2022/05/08 03:53:54;;;;;;;9.00;3.52;;;10.00;82.00;;;;;;1921812;75;21046;-57
2022/05/08 03:56:24;;;;;;;4.50;3.17;;;10.10;82.20;;;;;;1921929;75;21018;-57
2022/05/08 03:58:53;;;;;;;6.08;3.95;;;10.10;82.20;;;;;;1921774;75;21006;-56
2022/05/08 04:01:22;;;;;;;5.30;3.52;;;10.10;82.20;;;;;;1921764;75;21092;-56
2022/05/08 04:03:51;;;;;;;4.60;3.60;;;10.20;82.00;;;;;;1921804;75;21097;-57
2022/05/08 04:06:21;;;;;;;5.20;3.72;;;10.10;81.50;;;;;;1921897;75;21084;-57
2022/05/08 04:08:53;;;;;;;5.08;3.45;;;10.20;81.80;;;;;;1921915;75;21030;-57
2022/05/08 04:11:22;;;;;;;4.20;3.52;;;10.20;81.90;;;;;;1921833;75;21426;-57
2022/05/08 04:13:51;;;;;;;5.45;3.33;;;10.20;81.80;;;;;;1921740;75;21092;-57
2022/05/08 04:16:21;;;;;;;4.50;3.80;;;10.30;81.60;;;;;;1921811;75;21030;-57
2022/05/08 04:18:51;;;;;;;5.87;3.25;;;10.30;81.30;;;;;;1921774;75;21117;-57
2022/05/08 04:21:20;;;;;;;7.58;3.95;;;10.30;81.20;;;;;;1921737;75;21030;-57
2022/05/08 04:26:37;;;;;;;5.00;3.05;;;10.40;81.10;;;;;;1921923;75;21015;-56
2022/05/08 04:29:07;;;;;;;7.28;5.10;;;10.40;81.20;;;;;;1921834;75;21030;-56
2022/05/08 04:31:36;;;;;;;4.65;3.62;;;10.50;81.10;;;;;;1921791;75;21031;-56
2022/05/08 04:34:06;;;;;;;4.37;3.27;;;10.50;80.90;;;;;;1916444;74;21066;-56
2022/05/08 04:36:35;;;;;;;3.62;2.92;;;10.60;80.70;;;;;;1913547;75;21058;-57
2022/05/08 04:39:05;;;;;;;5.62;3.25;;;10.60;80.70;;;;;;1913572;75;21030;-57
2022/05/08 04:41:34;;;;;;;6.35;3.75;;;10.70;80.70;;;;;;1913454;75;21035;-57
2022/05/08 04:44:04;;;;;;;6.35;2.83;;;10.70;80.60;;;;;;1913485;75;21051;-57
2022/05/08 04:46:33;;;;;;;6.40;3.42;;;10.80;80.80;;;;;;1913499;75;21026;-57
2022/05/08 04:49:04;;;;;;;5.60;3.52;;;10.90;80.60;;;;;;1913625;75;21046;-57
2022/05/08 04:51:34;;;;;;;4.50;3.47;;;11.00;80.00;;;;;;1913585;75;21055;-57
2022/05/08 04:54:03;;;;;;;4.95;3.58;;;11.10;80.10;;;;;;1913563;75;21027;-57
2022/05/08 04:56:32;;;;;;;4.58;3.27;;;11.20;80.10;;;;;;1913509;74;21047;-57
2022/05/08 04:59:02;;;;;;;4.90;3.02;;;11.30;79.70;;;;;;1913546;74;21027;-57
2022/05/08 05:01:31;;;;;;;4.05;3.30;;;11.30;79.50;;;;;;1913547;75;21140;-57
2022/05/08 05:04:01;;;;;;;7.25;3.72;;;11.40;79.00;;;;;;1913523;75;21084;-57
2022/05/08 05:06:34;;;;;;;6.08;3.45;;;11.40;79.10;;;;;;1913464;75;21539;-56
2022/05/08 05:09:03;;;;;;;7.40;3.42;;;11.50;78.90;;;;;;1913436;75;21027;-57
2022/05/08 05:11:33;;;;;;;4.60;3.17;;;11.60;78.40;;;;;;1913467;75;21047;-57
2022/05/08 05:14:02;;;;;;;8.33;3.65;;;11.60;78.50;;;;;;1913324;75;21088;-57
2022/05/08 05:16:31;;;;;;;6.92;3.70;;;11.60;78.00;;;;;;1913410;74;21090;-57
2022/05/08 05:19:01;;;;;;;5.67;2.90;;;11.60;78.40;;;;;;1913466;75;21034;-57
2022/05/08 05:21:30;;;;;;;5.78;3.42;;;11.70;78.70;;;;;;1913474;75;21003;-57
2022/05/08 05:24:00;;;;;;;5.45;3.20;;;11.80;78.80;;;;;;1913454;75;21156;-57
2022/05/08 05:26:29;;;;;;;6.37;3.25;;;11.90;78.30;;;;;;1913464;75;21054;-57
2022/05/08 05:28:58;;;;;;;7.83;3.87;;;12.00;78.20;;;;;;1913339;75;21035;-57
2022/05/08 05:31:28;;;;;;;7.62;5.00;;;12.00;77.40;;;;;;1913450;74;21047;-56
2022/05/08 05:33:57;;;;;;;6.47;3.33;;;12.20;77.80;;;;;;1915963;75;21058;-57
2022/05/08 05:36:26;;;;;;;6.58;4.05;;;12.30;77.70;;;;;;1921749;75;21007;-57
2022/05/08 05:38:56;;;;;;;6.78;3.52;;;12.30;77.40;;;;;;1921686;75;21022;-57
2022/05/08 05:41:25;;;;;;;5.30;3.10;;;12.40;77.00;;;;;;1921775;75;21092;-57
2022/05/08 05:43:55;;;;;;;5.17;3.55;;;12.60;76.50;;;;;;1921699;75;21034;-57
2022/05/08 05:49:12;;;;;;;5.55;3.40;;;12.80;74.70;;;;;;1921688;75;21034;-56
2022/05/08 05:51:41;;;;;;;4.50;2.90;;;12.80;75.60;;;;;;1921679;75;21065;-56
2022/05/08 05:54:10;;;;;;;7.83;3.08;;;13.00;74.90;;;;;;1921711;75;21073;-56
2022/05/08 05:56:41;;;;;;;5.08;3.00;;;13.00;73.30;;;;;;1921710;75;21155;-57
2022/05/08 05:59:10;;;;;;;5.30;3.20;;;13.00;73.20;;;;;;1921641;75;21030;-56
2022/05/08 06:01:40;;;;;;;6.05;2.80;;;13.10;72.80;;;;;;1921737;75;21066;-56
2022/05/08 06:04:09;;;;;;;3.67;2.62;;;13.20;72.50;;;;;;1921736;75;21171;-56
2022/05/08 06:06:38;;;;;;;6.20;2.95;;;13.20;72.20;;;;;;1921680;75;21100;-56
2022/05/08 06:09:08;;;;;;;4.47;2.60;;;13.30;72.30;;;;;;1921760;75;21042;-56
2022/05/08 06:11:37;;;;;;;5.65;2.85;;;13.30;70.90;;;;;;1921790;75;21088;-57
2022/05/08 06:14:06;;;;;;;4.45;2.87;;;13.30;71.50;;;;;;1921828;75;21007;-56
2022/05/08 06:16:36;;;;;;;5.25;3.27;;;13.40;71.30;;;;;;1921854;75;21039;-57
2022/05/08 06:19:06;;;;;;;7.95;3.05;;;13.50;70.70;;;;;;1921913;75;21007;-56
2022/05/08 06:21:35;;;;;;;4.97;2.70;;;13.60;70.60;;;;;;1921716;75;21073;-56
2022/05/08 06:24:04;;;;;;;3.95;2.67;;;13.70;70.50;;;;;;1921732;75;21072;-56
2022/05/08 06:26:34;;;;;;;4.03;2.90;;;13.80;70.50;;;;;;1921730;75;21030;-57
2022/05/08 06:29:03;;;;;;;4.87;3.00;;;13.90;70.30;;;;;;1921684;75;21040;-56
2022/05/08 06:31:33;;;;;;;5.28;3.25;;;13.90;70.20;;;;;;1921768;75;21026;-57
2022/05/08 06:34:02;;;;;;;4.50;2.98;;;14.10;69.00;;;;;;1921605;75;21027;-56
2022/05/08 06:36:32;;;;;;;4.53;3.02;;;14.10;67.30;;;;;;1921659;75;21080;-57
2022/05/08 06:39:02;;;;;;;3.08;2.22;;;14.10;68.30;;;;;;1921664;75;21026;-56
2022/05/08 06:41:32;;;;;;;5.70;2.90;;;14.10;68.10;;;;;;1921852;75;21080;-56
2022/05/08 06:44:01;;;;;;;5.28;3.02;;;14.20;68.40;;;;;;1921721;75;21042;-57
2022/05/08 06:46:32;;;;;;;8.95;3.47;;;14.30;68.70;;;;;;1921776;75;21010;-57
2022/05/08 06:49:01;;;;;;;9.45;2.87;;;14.40;68.90;;;;;;1921713;75;20999;-57
2022/05/08 06:51:30;;;;;;;5.15;3.02;;;14.50;68.10;;;;;;1921838;75;21027;-56
2022/05/08 06:54:00;;;;;;;5.37;3.12;;;14.60;67.30;;;;;;1921706;75;21046;-56
2022/05/08 06:56:34;;;;;;;3.87;3.20;;;14.60;67.10;;;;;;1921840;75;21047;-56
2022/05/08 07:01:47;;;;;;;4.90;2.90;;;14.70;67.30;;;;;;1921723;75;21062;-56
2022/05/08 07:04:17;;;;;;;9.15;2.70;;;14.80;64.70;;;;;;1921871;75;21043;-56
2022/05/08 07:06:46;;;;;;;3.45;2.65;;;14.80;64.70;;;;;;1921826;75;21035;-57
2022/05/08 07:09:15;;;;;;;7.40;3.05;;;14.90;63.90;;;;;;1921714;75;21084;-56
2022/05/08 07:11:50;;;;;;;3.87;2.58;;;14.90;63.60;;;;;;1921688;75;21092;-57
2022/05/08 07:14:20;;;;;;;3.72;2.00;;;14.90;62.70;;;;;;1921575;75;21097;-56
2022/05/08 07:16:49;;;;;;;6.28;2.47;;;15.00;61.30;;;;;;1921806;75;21088;-56
2022/05/08 07:19:18;;;;;;;4.53;2.40;;;15.10;61.90;;;;;;1921739;75;21003;-57
2022/05/08 07:21:47;;;;;;;7.03;2.45;;;15.10;59.20;;;;;;1921728;75;21433;-56
2022/05/08 07:24:17;;;;;;;13.28;3.45;;;15.10;59.80;;;;;;1921697;75;21089;-56
2022/05/08 07:26:47;;;;;;;5.40;2.55;;;15.10;59.80;;;;;;1921733;75;21096;-56
2022/05/08 07:29:16;;;;;;;3.62;2.80;;;15.20;60.90;;;;;;1921649;75;21040;-56
2022/05/08 07:31:46;;;;;;;4.45;2.20;;;15.20;60.70;;;;;;1921814;75;21026;-56
2022/05/08 07:37:03;;;;;;;2.92;1.40;;;15.50;59.80;;;;;;1921748;75;21027;-57
2022/05/08 07:39:33;;;;;;;5.53;2.17;;;15.60;57.00;;;;;;1921609;75;21023;-57
2022/05/08 07:42:02;;;;;;;3.95;2.30;;;15.70;58.90;;;;;;1921703;75;21026;-56
2022/05/08 07:44:31;;;;;;;29.92;5.33;;;15.70;58.10;;;;;;1921673;75;21527;-56
2022/05/08 07:47:00;;;;;;;2.95;1.67;;;15.80;58.10;;;;;;1921740;75;21579;-56
2022/05/08 07:49:29;;;;;;;6.37;2.12;;;15.80;56.90;;;;;;1921733;75;21007;-56
2022/05/08 07:51:59;;;;;;;2.52;1.85;;;15.90;57.20;;;;;;1921649;75;21026;-56
2022/05/08 07:54:28;;;;;;;2.98;1.70;;;16.00;57.60;;;;;;1921685;75;21018;-56
2022/05/08 07:56:57;;;;;;;1.95;1.40;;;16.10;53.80;;;;;;1921738;75;21022;-56
2022/05/08 07:59:27;;;;;;;4.35;1.77;;;16.10;53.70;;;;;;1921575;75;21027;-56
2022/05/08 08:01:56;;;;;;;2.50;1.40;;;16.20;54.00;;;;;;1921632;75;21006;-56
2022/05/08 08:04:26;;;;;;;5.08;1.20;;;16.20;54.10;;;;;;1921684;75;21105;-56
2022/05/08 08:06:55;;;;;;;4.80;1.47;;;16.20;49.90;;;;;;1921658;75;21116;-56
2022/05/08 08:09:24;;;;;;;4.50;1.40;;;16.20;48.80;;;;;;1921683;75;21453;-56
2022/05/08 08:11:54;;;;;;;5.62;2.17;;;16.10;48.30;;;;;;1921634;75;21042;-56
2022/05/08 08:14:23;;;;;;;4.67;1.90;;;16.10;50.40;;;;;;1921623;75;21027;-57
2022/05/08 08:16:53;;;;;;;4.33;1.82;;;16.20;50.20;;;;;;1921545;75;21100;-56
2022/05/08 08:19:22;;;;;;;3.37;1.80;;;16.30;50.10;;;;;;1921502;75;21039;-56
2022/05/08 08:21:52;;;;;;;4.42;1.92;;;16.30;50.70;;;;;;1921514;75;21100;-56
2022/05/08 08:24:21;;;;;;;3.77;1.80;;;16.40;49.40;;;;;;1921549;75;21054;-56
2022/05/08 08:26:51;;;;;;;3.72;1.85;;;16.40;49.80;;;;;;1921781;75;21080;-57
2022/05/08 08:29:20;;;;;;;2.35;1.72;;;16.50;49.90;;;;;;1921693;75;21062;-56
2022/05/08 08:31:49;;;;;;;5.65;1.57;;;16.60;50.50;;;;;;1921865;75;21096;-56
2022/05/08 08:34:19;;;;;;;4.10;1.95;;;16.60;51.10;;;;;;1921752;75;21106;-57
2022/05/08 08:36:49;;;;;;;5.12;1.80;;;16.80;51.20;;;;;;1915916;75;21055;-56
2022/05/08 08:39:19;;;;;;;2.90;1.37;;;16.90;51.40;;;;;;1913422;75;21042;-56
2022/05/08 08:41:54;;;;;;;3.00;1.37;;;16.90;48.90;;;;;;1913578;75;21034;-56
2022/05/08 08:50:05;;;;;;;3.90;1.50;;;17.00;47.00;;;;;;1913453;75;21039;-56
2022/05/08 08:52:36;;;;;;;7.00;2.15;;;16.90;46.10;;;;;;1913516;75;21088;-56
2022/05/08 08:55:09;;;;;;;3.67;1.90;;;16.90;47.30;;;;;;1913510;75;21100;-56
2022/05/08 08:57:38;;;;;;;2.77;1.85;;;17.00;47.60;;;;;;1913504;75;21105;-57
2022/05/08 09:00:08;;;;;;;3.47;1.50;;;17.00;47.90;;;;;;1913631;74;21035;-57
2022/05/08 09:02:38;;;;;;;12.23;1.70;;;17.10;46.30;;;;;;1913491;75;21112;-57
2022/05/08 09:05:09;;;;;;;15.88;3.17;;;17.10;47.40;;;;;;1913462;75;21007;-56
2022/05/08 09:07:44;;;;;;;4.45;2.00;;;17.10;47.50;;;;;;1913634;75;21092;-56
2022/05/08 09:10:21;;;;;;;4.45;2.20;;;17.10;48.20;;;;;;1913709;75;21063;-56
2022/05/08 09:13:04;;;;;;;2.90;1.65;;;17.20;48.20;;;;;;1913520;75;21099;-57
2022/05/08 09:15:38;;;;;;;4.42;1.70;;;17.30;47.80;;;;;;1913731;75;21038;-56
2022/05/08 09:18:09;;;;;;;5.35;1.77;;;17.30;47.50;;;;;;1913634;75;21035;-56
2022/05/08 09:20:40;;;;;;;6.78;2.37;;;17.40;47.30;;;;;;1913549;75;21039;-56
2022/05/08 09:23:15;;;;;;;4.53;1.40;;;17.50;47.10;;;;;;1913537;75;21030;-56
2022/05/08 09:25:52;;;;;;;3.72;1.37;;;17.60;45.60;;;;;;1913739;75;21038;-57
2022/05/08 09:28:27;;;;;;;4.97;1.32;;;17.50;46.00;;;;;;1913429;75;21108;-56
2022/05/08 09:31:16;;;;;;;5.28;3.02;;;17.60;47.00;;;;;;1913642;75;21097;-56
2022/05/08 09:33:47;;;;;;;8.60;1.90;;;17.70;47.00;;;;;;1912398;75;21054;-56
2022/05/08 09:36:21;;;;;;;3.62;1.50;;;17.70;47.20;;;;;;1915234;75;21058;-56
2022/05/08 09:38:57;;;;;;;7.08;1.92;;;17.80;46.30;;;;;;1920882;75;21026;-56
2022/05/08 09:41:28;;;;;;;5.62;1.82;;;17.80;45.30;;;;;;1921656;75;21046;-57
2022/05/08 09:44:14;;;;;;;2.62;1.22;;;17.80;45.00;;;;;;1921946;75;21085;-57
2022/05/08 09:46:46;;;;;;;7.12;1.95;;;17.90;44.30;;;;;;1921806;75;21018;-57
2022/05/08 09:49:23;;;;;;;3.35;1.55;;;17.90;45.20;;;;;;1921118;75;21484;-57
2022/05/08 09:51:53;;;;;;;7.37;1.85;;;17.90;44.00;;;;;;1921725;75;21076;-57
2022/05/08 09:54:23;;;;;;;4.70;1.40;;;17.90;44.40;;;;;;1921892;75;21092;-57
2022/05/08 09:56:52;;;;;;;5.15;2.05;;;17.90;44.80;;;;;;1921846;75;21096;-57
2022/05/08 09:59:22;;;;;;;2.33;1.55;;;18.00;45.40;;;;;;1921752;75;21135;-57
2022/05/08 10:01:52;;;;;;;3.05;1.30;;;18.00;44.40;;;;;;1921955;75;21081;-57
2022/05/08 10:04:21;;;;;;;5.85;1.57;;;18.10;43.40;;;;;;1921875;75;21070;-57
2022/05/08 10:06:52;;;;;;;2.70;1.62;;;18.10;43.80;;;;;;1921831;75;21112;-57
2022/05/08 10:14:59;;;;;;;5.97;2.20;;;18.30;43.00;;;;;;1921690;75;21112;-57
2022/05/08 10:17:32;;;;;;;4.72;2.47;;;18.30;42.30;;;;;;1914257;75;21125;-57
2022/05/08 10:20:01;;;;;;;3.85;1.40;;;18.30;42.00;;;;;;1921811;75;21120;-57
2022/05/08 10:22:50;;;;;;;2.80;2.08;;;18.30;41.70;;;;;;1921570;75;21051;-57
2022/05/08 10:25:19;;;;;;;2.42;1.20;;;18.30;43.00;;;;;;1921699;75;21054;-57
2022/05/08 10:28:08;;;;;;;2.62;1.55;;;18.40;41.80;;;;;;1921920;75;21058;-57
2022/05/08 10:30:40;;;;;;;2.72;1.70;;;18.40;42.40;;;;;;1921702;75;21100;-57
2022/05/08 10:33:08;;;;;;;3.65;1.50;;;18.40;42.40;;;;;;1921722;75;21031;-57
2022/05/08 10:35:38;;;;;;;5.75;1.95;;;18.40;42.40;;;;;;1921643;75;21116;-57
2022/05/08 10:38:16;;;;;;;6.03;2.08;;;18.40;43.00;;;;;;1915104;75;21055;-57
2022/05/08 10:40:46;;;;;;;5.33;2.98;;;18.50;43.20;;;;;;1913360;75;21116;-57
2022/05/08 10:43:19;;;;;;;5.85;2.10;;;18.60;42.90;;;;;;1913403;75;21450;-57
2022/05/08 10:45:48;;;;;;;3.95;1.57;;;18.70;43.60;;;;;;1913495;75;21039;-57
2022/05/08 10:48:21;;;;;;;3.02;1.10;;;18.80;43.20;;;;;;1913352;75;21027;-57
2022/05/08 10:50:53;;;;;;;3.02;1.30;;;18.80;42.30;;;;;;1913499;75;21007;-57
2022/05/08 10:53:27;;;;;;;2.65;1.27;;;18.80;43.50;;;;;;1912142;75;21039;-57
2022/05/08 10:56:03;;;;;;;3.08;1.40;;;18.80;42.40;;;;;;1913625;75;21026;-57
2022/05/08 10:58:34;;;;;;;1.67;1.42;;;18.80;42.20;;;;;;1913283;74;21023;-57
2022/05/08 11:01:05;;;;;;;4.45;1.87;;;18.80;41.50;;;;;;1823847;79;21046;-57
2022/05/08 11:03:39;;;;;;;6.87;3.20;;;18.80;42.30;;;;;;1856153;77;21042;-56
2022/05/08 11:06:07;;;;;;;3.08;1.85;;;18.80;42.40;;;;;;1912862;75;21084;-57
2022/05/08 11:08:37;;;;;;;4.58;2.17;;;18.90;42.20;;;;;;1913463;75;21088;-57
2022/05/08 11:11:10;;;;;;;5.67;2.17;;;18.90;42.90;;;;;;1912768;75;21104;-56
2022/05/08 11:13:45;;;;;;;3.37;1.35;;;18.90;42.40;;;;;;1913237;75;21047;-56
2022/05/08 11:16:15;;;;;;;;;;;19.00;41.60;;;;;;1912881;75;21602;-56
2022/05/08 11:18:45;;;;;;;2.55;1.60;;;19.00;40.80;;;;;;1913362;75;20133;-56
2022/05/08 11:21:15;;;;;;;14.70;2.10;;;19.00;41.60;;;;;;1913548;75;21078;-56
2022/05/08 11:23:45;;;;;;;5.37;1.35;;;19.00;41.60;;;;;;1913475;75;21023;-57
2022/05/08 11:26:15;;;;;;;7.83;1.55;;;19.00;41.20;;;;;;1913594;75;21027;-57
2022/05/08 11:28:50;;;;;;;1.77;1.35;;;19.10;40.00;;;;;;1913335;75;21045;-56
2022/05/08 11:31:20;;;;;;;6.10;2.27;;;19.10;40.00;;;;;;1913506;75;21035;-56
2022/05/08 11:36:38;;;;;;;5.40;1.40;;;19.00;41.50;;;;;;1913435;75;21039;-57
2022/05/08 11:39:13;;;;;;;4.10;1.70;;;19.00;41.80;;;;;;1921333;75;21128;-56
2022/05/08 11:41:44;;;;;;;4.05;1.75;;;19.00;41.50;;;;;;1921908;75;21528;-57
2022/05/08 11:44:21;;;;;;;6.00;1.70;;;19.10;42.20;;;;;;1921668;75;21031;-55
2022/05/08 11:46:59;;;;;;;2.22;1.65;;;19.10;41.40;;;;;;1921736;75;21084;-55
2022/05/08 11:49:32;;;;;;;3.17;1.80;;;19.10;41.80;;;;;;1921605;75;21072;-55
2022/05/08 11:52:06;;;;;;;2.75;1.35;;;19.20;41.70;;;;;;1921667;75;21026;-55
2022/05/08 11:54:38;;;;;;;4.33;1.93;;;19.20;41.50;;;;;;1922005;75;21100;-55
2022/05/08 11:57:21;;;;;;;8.60;2.47;;;19.20;41.20;;;;;;1921558;75;21038;-55
2022/05/08 11:59:53;;;;;;;7.53;1.70;;;19.20;41.20;;;;;;1922016;75;21022;-56
2022/05/08 12:02:25;;;;;;;4.75;1.30;;;19.20;39.30;;;;;;1921798;75;21151;-55
2022/05/08 12:04:57;;;;;;;4.00;2.45;;;19.10;40.30;;;;;;1916023;75;21054;-55
2022/05/08 12:07:26;;;;;;;6.90;3.67;;;19.10;40.80;;;;;;1921566;75;21030;-55
2022/05/08 12:09:56;;;;;;;5.62;1.90;;;19.20;41.00;;;;;;1921673;75;21026;-55
2022/05/08 12:12:31;;;;;;;5.97;2.22;;;19.20;41.60;;;;;;1921706;75;21092;-55
2022/05/08 12:15:02;;;;;;;2.62;1.40;;;19.30;40.80;;;;;;1921960;75;21042;-56
2022/05/08 12:17:46;;;;;;;3.10;1.65;;;19.30;40.00;;;;;;1921707;75;21042;-56
2022/05/08 12:20:27;;;;;;;7.33;2.00;;;19.30;40.50;;;;;;1922146;75;21453;-57
2022/05/08 12:23:05;;;;;;;4.42;2.08;;;19.30;40.70;;;;;;1921721;75;21047;-57
2022/05/08 12:25:38;;;;;;;7.65;2.27;;;19.30;41.10;;;;;;1921783;75;21026;-57
2022/05/08 12:28:10;;;;;;;4.75;2.10;;;19.40;41.10;;;;;;1921725;75;21030;-57
2022/05/08 12:30:39;;;;;;;2.85;1.60;;;19.40;40.70;;;;;;1921791;75;21042;-57
2022/05/08 12:33:08;;;;;;;4.95;2.12;;;19.50;40.70;;;;;;1921866;75;21026;-58
2022/05/08 12:35:38;;;;;;;3.10;1.92;;;19.50;40.90;;;;;;1921764;75;21022;-57
2022/05/08 12:38:07;;;;;;;2.75;1.77;;;19.50;41.10;;;;;;1919205;74;21054;-57
2022/05/08 12:40:36;;;;;;;2.50;1.60;;;19.60;41.30;;;;;;1913510;75;21081;-57
2022/05/08 12:43:06;;;;;;;3.27;1.55;;;19.60;40.50;;;;;;1913494;75;21043;-57
2022/05/08 12:45:37;;;;;;;1.98;1.52;;;19.60;40.20;;;;;;1913492;75;21654;-57
2022/05/08 12:48:07;;;;;;;3.08;1.95;;;19.60;40.30;;;;;;1913467;75;21474;-57
2022/05/08 12:50:37;;;;;;;4.72;1.80;;;19.50;40.40;;;;;;1913464;75;21003;-57
2022/05/08 12:53:06;;;;;;;3.08;1.90;;;19.50;40.80;;;;;;1913473;75;21030;-57
2022/05/08 12:55:35;;;;;;;4.33;1.70;;;19.60;40.30;;;;;;1913604;75;21035;-57
2022/05/08 13:00:52;;;;;;;6.58;2.15;;;19.40;40.10;;;;;;1913446;74;21015;-57
2022/05/08 13:03:21;;;;;;;7.72;1.70;;;19.40;40.30;;;;;;1913366;75;20999;-57
2022/05/08 13:05:51;;;;;;;8.93;2.10;;;19.50;40.10;;;;;;1913487;75;21050;-57
2022/05/08 13:08:22;;;;;;;3.22;1.62;;;19.50;40.30;;;;;;1912989;75;21101;-57
2022/05/08 13:10:51;;;;;;;6.55;4.00;;;19.50;40.80;;;;;;1913340;75;21007;-57
2022/05/08 13:13:21;;;;;;;4.25;2.20;;;19.50;39.80;;;;;;1913409;75;21041;-57
2022/05/08 13:15:50;;;;;;;7.05;1.85;;;19.50;40.00;;;;;;1913428;75;21092;-57
2022/05/08 13:18:19;;;;;;;2.85;1.92;;;19.60;40.00;;;;;;1913442;75;21051;-58
2022/05/08 13:20:49;;;;;;;6.65;2.00;;;19.60;40.00;;;;;;1913463;75;21038;-57
2022/05/08 13:23:18;;;;;;;4.53;1.90;;;19.60;40.20;;;;;;1913552;75;21027;-57
2022/05/08 13:25:48;;;;;;;5.78;2.00;;;19.60;40.30;;;;;;1913565;75;21028;-57
2022/05/08 13:28:17;;;;;;;5.33;1.57;;;19.60;40.40;;;;;;1913473;75;21027;-57
2022/05/08 13:30:47;;;;;;;7.60;2.85;;;19.70;40.00;;;;;;1913549;75;21027;-57
2022/05/08 13:33:16;;;;;;;6.15;4.30;;;19.70;39.60;;;;;;1913431;75;21030;-57
2022/05/08 13:35:47;;;;;;;2.37;1.60;;;19.70;39.90;;;;;;1913470;75;21555;-57